Google Maps JavaScript API Example
Pilot Flight Report # 90960 Submitted by : AST154 on 2018-03-20
Date: 2018-03-20Aircraft: Boeing 737-800
Flight No.: AST0193Distance (Nm): 482.35
Departure: KCLE - Cleveland-Hopkins InternationalDestination: KATL - The Hartsfield Atlanta International
 TimeFuelWeightSpeeds  
Out (Taxi)1758Z19716 lbs128278 lbs Flight RulesIFR
Off (Takeoff)1808Z 127525 lbs181 ktsFlight Level35000
On (Landing)1948Z 113970 lbs151 ktsVSTD-970 ft/min
In (Ramp)1955Z4857 lbs113416 lbs ZFW108560 lbs
Flight1.70  -  1:4013559 lbs  Pax0
Block1.95  -  1:5714859 lbs  Cargo0
Departure WeatherKCLE 201745Z 21908KT 7SM FEW016 FEW047 10/8 A2992
Destination WeatherKATL 201955Z 19204KT 1SM OVC015 13/13 A3007
Flight CommentsGreat flight...